sensor_id;sensor_type;location;lat;lon;timestamp;P1;durP1;ratioP1;P2;durP2;ratioP2
32214;SDS011;18708;53.124;23.190;2023-04-24T00:02:08;5.88;;;3.30;;
32214;SDS011;18708;53.124;23.190;2023-04-24T00:04:36;5.78;;;3.30;;
32214;SDS011;18708;53.124;23.190;2023-04-24T00:07:05;3.53;;;2.92;;
32214;SDS011;18708;53.124;23.190;2023-04-24T00:09:32;3.60;;;2.88;;
32214;SDS011;18708;53.124;23.190;2023-04-24T00:12:00;6.15;;;3.15;;
32214;SDS011;18708;53.124;23.190;2023-04-24T00:14:29;3.40;;;2.80;;
32214;SDS011;18708;53.124;23.190;2023-04-24T00:16:57;3.33;;;2.88;;
32214;SDS011;18708;53.124;23.190;2023-04-24T00:19:23;3.17;;;2.85;;
32214;SDS011;18708;53.124;23.190;2023-04-24T00:21:48;5.28;;;2.47;;
32214;SDS011;18708;53.124;23.190;2023-04-24T00:24:15;4.15;;;3.10;;
32214;SDS011;18708;53.124;23.190;2023-04-24T00:26:41;4.05;;;3.13;;
32214;SDS011;18708;53.124;23.190;2023-04-24T00:29:07;3.33;;;2.60;;
32214;SDS011;18708;53.124;23.190;2023-04-24T00:31:33;6.03;;;3.53;;
32214;SDS011;18708;53.124;23.190;2023-04-24T00:34:01;5.00;;;2.72;;
32214;SDS011;18708;53.124;23.190;2023-04-24T00:36:27;5.47;;;3.28;;
32214;SDS011;18708;53.124;23.190;2023-04-24T00:38:53;6.00;;;3.60;;
32214;SDS011;18708;53.124;23.190;2023-04-24T00:41:20;5.95;;;3.35;;
32214;SDS011;18708;53.124;23.190;2023-04-24T00:43:47;6.22;;;3.80;;
32214;SDS011;18708;53.124;23.190;2023-04-24T00:46:13;7.40;;;4.85;;
32214;SDS011;18708;53.124;23.190;2023-04-24T00:48:39;8.77;;;5.22;;
32214;SDS011;18708;53.124;23.190;2023-04-24T00:51:05;10.10;;;4.75;;
32214;SDS011;18708;53.124;23.190;2023-04-24T00:53:31;7.80;;;4.55;;
32214;SDS011;18708;53.124;23.190;2023-04-24T00:55:57;7.25;;;4.15;;
32214;SDS011;18708;53.124;23.190;2023-04-24T00:58:24;5.78;;;4.07;;
32214;SDS011;18708;53.124;23.190;2023-04-24T01:00:50;8.27;;;3.90;;
32214;SDS011;18708;53.124;23.190;2023-04-24T01:03:19;6.22;;;4.32;;
32214;SDS011;18708;53.124;23.190;2023-04-24T01:05:46;4.47;;;3.30;;
32214;SDS011;18708;53.124;23.190;2023-04-24T01:08:13;5.93;;;3.45;;
32214;SDS011;18708;53.124;23.190;2023-04-24T01:10:40;5.78;;;3.42;;
32214;SDS011;18708;53.124;23.190;2023-04-24T01:13:07;5.50;;;3.70;;
32214;SDS011;18708;53.124;23.190;2023-04-24T01:15:34;6.32;;;4.03;;
32214;SDS011;18708;53.124;23.190;2023-04-24T01:17:59;5.90;;;3.40;;
32214;SDS011;18708;53.124;23.190;2023-04-24T01:20:25;7.28;;;3.47;;
32214;SDS011;18708;53.124;23.190;2023-04-24T01:22:51;4.55;;;3.00;;
32214;SDS011;18708;53.124;23.190;2023-04-24T01:25:19;5.45;;;3.78;;
32214;SDS011;18708;53.124;23.190;2023-04-24T01:27:45;8.05;;;3.65;;
32214;SDS011;18708;53.124;23.190;2023-04-24T01:30:11;5.43;;;3.50;;
32214;SDS011;18708;53.124;23.190;2023-04-24T01:32:39;5.85;;;4.10;;
32214;SDS011;18708;53.124;23.190;2023-04-24T01:35:06;5.53;;;3.70;;
32214;SDS011;18708;53.124;23.190;2023-04-24T01:37:32;7.13;;;4.28;;
32214;SDS011;18708;53.124;23.190;2023-04-24T01:39:58;5.38;;;4.00;;
32214;SDS011;18708;53.124;23.190;2023-04-24T01:42:25;6.55;;;4.25;;
32214;SDS011;18708;53.124;23.190;2023-04-24T01:44:51;7.03;;;4.07;;
32214;SDS011;18708;53.124;23.190;2023-04-24T01:47:17;9.63;;;4.50;;
32214;SDS011;18708;53.124;23.190;2023-04-24T01:49:43;6.53;;;4.25;;
32214;SDS011;18708;53.124;23.190;2023-04-24T01:52:10;7.28;;;4.10;;
32214;SDS011;18708;53.124;23.190;2023-04-24T01:54:36;8.07;;;3.75;;
32214;SDS011;18708;53.124;23.190;2023-04-24T01:57:02;5.65;;;3.95;;
32214;SDS011;18708;53.124;23.190;2023-04-24T01:59:27;5.35;;;3.35;;
32214;SDS011;18708;53.124;23.190;2023-04-24T02:01:54;8.77;;;3.25;;
32214;SDS011;18708;53.124;23.190;2023-04-24T02:04:20;5.35;;;3.78;;
32214;SDS011;18708;53.124;23.190;2023-04-24T02:06:46;6.40;;;3.20;;
32214;SDS011;18708;53.124;23.190;2023-04-24T02:09:11;10.82;;;3.60;;
32214;SDS011;18708;53.124;23.190;2023-04-24T02:11:39;5.45;;;3.85;;
32214;SDS011;18708;53.124;23.190;2023-04-24T02:14:05;7.10;;;3.88;;
32214;SDS011;18708;53.124;23.190;2023-04-24T02:16:30;4.40;;;3.53;;
32214;SDS011;18708;53.124;23.190;2023-04-24T02:18:57;5.05;;;3.95;;
32214;SDS011;18708;53.124;23.190;2023-04-24T02:21:25;5.88;;;3.42;;
32214;SDS011;18708;53.124;23.190;2023-04-24T02:23:52;7.65;;;3.65;;
32214;SDS011;18708;53.124;23.190;2023-04-24T02:26:18;7.63;;;3.42;;
32214;SDS011;18708;53.124;23.190;2023-04-24T02:28:43;6.72;;;4.20;;
32214;SDS011;18708;53.124;23.190;2023-04-24T02:31:09;6.32;;;3.47;;
32214;SDS011;18708;53.124;23.190;2023-04-24T02:33:35;7.75;;;3.88;;
32214;SDS011;18708;53.124;23.190;2023-04-24T02:36:01;7.57;;;3.88;;
32214;SDS011;18708;53.124;23.190;2023-04-24T02:38:28;5.00;;;3.47;;
32214;SDS011;18708;53.124;23.190;2023-04-24T02:40:54;6.40;;;4.00;;
32214;SDS011;18708;53.124;23.190;2023-04-24T02:43:19;6.30;;;3.72;;
32214;SDS011;18708;53.124;23.190;2023-04-24T02:45:45;6.95;;;4.22;;
32214;SDS011;18708;53.124;23.190;2023-04-24T02:48:11;6.65;;;3.95;;
32214;SDS011;18708;53.124;23.190;2023-04-24T02:50:39;6.90;;;3.63;;
32214;SDS011;18708;53.124;23.190;2023-04-24T02:53:05;5.45;;;3.90;;
32214;SDS011;18708;53.124;23.190;2023-04-24T02:55:30;6.72;;;3.83;;
32214;SDS011;18708;53.124;23.190;2023-04-24T02:57:56;8.45;;;3.83;;
32214;SDS011;18708;53.124;23.190;2023-04-24T03:00:22;5.25;;;3.50;;
32214;SDS011;18708;53.124;23.190;2023-04-24T03:02:47;6.85;;;4.13;;
32214;SDS011;18708;53.124;23.190;2023-04-24T03:05:14;7.28;;;3.60;;
32214;SDS011;18708;53.124;23.190;2023-04-24T03:07:40;5.63;;;3.72;;
32214;SDS011;18708;53.124;23.190;2023-04-24T03:10:06;9.65;;;4.03;;
32214;SDS011;18708;53.124;23.190;2023-04-24T03:12:32;5.97;;;3.50;;
32214;SDS011;18708;53.124;23.190;2023-04-24T03:14:58;6.78;;;3.72;;
32214;SDS011;18708;53.124;23.190;2023-04-24T03:17:26;6.47;;;4.20;;
32214;SDS011;18708;53.124;23.190;2023-04-24T03:19:52;6.47;;;3.60;;
32214;SDS011;18708;53.124;23.190;2023-04-24T03:22:20;9.57;;;4.38;;
32214;SDS011;18708;53.124;23.190;2023-04-24T03:24:48;8.57;;;4.10;;
32214;SDS011;18708;53.124;23.190;2023-04-24T03:27:14;6.25;;;3.70;;
32214;SDS011;18708;53.124;23.190;2023-04-24T03:29:41;11.23;;;4.32;;
32214;SDS011;18708;53.124;23.190;2023-04-24T03:32:07;6.40;;;3.60;;
32214;SDS011;18708;53.124;23.190;2023-04-24T03:34:32;6.05;;;4.00;;
32214;SDS011;18708;53.124;23.190;2023-04-24T03:36:58;6.97;;;4.28;;
32214;SDS011;18708;53.124;23.190;2023-04-24T03:39:23;5.70;;;4.20;;
32214;SDS011;18708;53.124;23.190;2023-04-24T03:41:50;8.80;;;3.97;;
32214;SDS011;18708;53.124;23.190;2023-04-24T03:44:15;6.82;;;3.88;;
32214;SDS011;18708;53.124;23.190;2023-04-24T03:46:41;9.30;;;3.70;;
32214;SDS011;18708;53.124;23.190;2023-04-24T03:49:07;7.90;;;4.05;;
32214;SDS011;18708;53.124;23.190;2023-04-24T03:51:32;10.70;;;4.20;;
32214;SDS011;18708;53.124;23.190;2023-04-24T03:53:58;7.57;;;4.57;;
32214;SDS011;18708;53.124;23.190;2023-04-24T03:56:24;7.88;;;4.38;;
32214;SDS011;18708;53.124;23.190;2023-04-24T03:58:49;7.10;;;4.53;;
32214;SDS011;18708;53.124;23.190;2023-04-24T04:01:15;11.68;;;4.13;;
32214;SDS011;18708;53.124;23.190;2023-04-24T04:03:41;8.70;;;4.10;;
32214;SDS011;18708;53.124;23.190;2023-04-24T04:06:06;7.30;;;4.80;;
32214;SDS011;18708;53.124;23.190;2023-04-24T04:08:32;6.78;;;4.60;;
32214;SDS011;18708;53.124;23.190;2023-04-24T04:10:58;7.05;;;4.65;;
32214;SDS011;18708;53.124;23.190;2023-04-24T04:13:24;6.70;;;4.80;;
32214;SDS011;18708;53.124;23.190;2023-04-24T04:15:49;6.25;;;4.03;;
32214;SDS011;18708;53.124;23.190;2023-04-24T04:18:15;6.15;;;4.13;;
32214;SDS011;18708;53.124;23.190;2023-04-24T04:20:41;17.27;;;4.63;;
32214;SDS011;18708;53.124;23.190;2023-04-24T04:23:07;5.90;;;4.38;;
32214;SDS011;18708;53.124;23.190;2023-04-24T04:25:32;6.40;;;4.70;;
32214;SDS011;18708;53.124;23.190;2023-04-24T04:27:58;8.80;;;4.32;;
32214;SDS011;18708;53.124;23.190;2023-04-24T04:30:24;7.60;;;4.07;;
32214;SDS011;18708;53.124;23.190;2023-04-24T04:32:50;8.18;;;4.13;;
32214;SDS011;18708;53.124;23.190;2023-04-24T04:35:16;7.00;;;4.25;;
32214;SDS011;18708;53.124;23.190;2023-04-24T04:37:42;6.07;;;4.30;;
32214;SDS011;18708;53.124;23.190;2023-04-24T04:40:08;8.98;;;4.63;;
32214;SDS011;18708;53.124;23.190;2023-04-24T04:42:36;6.88;;;4.45;;
32214;SDS011;18708;53.124;23.190;2023-04-24T04:45:06;8.30;;;4.88;;
32214;SDS011;18708;53.124;23.190;2023-04-24T04:47:36;9.85;;;4.90;;
32214;SDS011;18708;53.124;23.190;2023-04-24T04:50:02;10.95;;;4.57;;
32214;SDS011;18708;53.124;23.190;2023-04-24T04:52:29;8.63;;;4.80;;
32214;SDS011;18708;53.124;23.190;2023-04-24T04:54:54;10.65;;;4.22;;
32214;SDS011;18708;53.124;23.190;2023-04-24T04:57:20;5.57;;;4.40;;
32214;SDS011;18708;53.124;23.190;2023-04-24T04:59:46;6.68;;;4.13;;
32214;SDS011;18708;53.124;23.190;2023-04-24T05:02:12;6.35;;;4.20;;
32214;SDS011;18708;53.124;23.190;2023-04-24T05:04:37;10.18;;;4.20;;
32214;SDS011;18708;53.124;23.190;2023-04-24T05:07:03;10.50;;;4.32;;
32214;SDS011;18708;53.124;23.190;2023-04-24T05:09:29;8.77;;;4.65;;
32214;SDS011;18708;53.124;23.190;2023-04-24T05:11:55;7.15;;;4.97;;
32214;SDS011;18708;53.124;23.190;2023-04-24T05:14:21;12.93;;;5.22;;
32214;SDS011;18708;53.124;23.190;2023-04-24T05:16:47;15.65;;;5.88;;
32214;SDS011;18708;53.124;23.190;2023-04-24T05:19:13;7.50;;;4.68;;
32214;SDS011;18708;53.124;23.190;2023-04-24T05:21:40;10.43;;;4.40;;
32214;SDS011;18708;53.124;23.190;2023-04-24T05:24:06;12.00;;;4.90;;
32214;SDS011;18708;53.124;23.190;2023-04-24T05:26:32;12.32;;;4.72;;
32214;SDS011;18708;53.124;23.190;2023-04-24T05:28:57;9.57;;;5.35;;
32214;SDS011;18708;53.124;23.190;2023-04-24T05:31:23;10.25;;;4.90;;
32214;SDS011;18708;53.124;23.190;2023-04-24T05:33:50;12.15;;;4.55;;
32214;SDS011;18708;53.124;23.190;2023-04-24T05:36:16;9.38;;;4.75;;
32214;SDS011;18708;53.124;23.190;2023-04-24T05:38:41;16.90;;;4.88;;
32214;SDS011;18708;53.124;23.190;2023-04-24T05:41:07;13.32;;;4.80;;
32214;SDS011;18708;53.124;23.190;2023-04-24T05:43:33;12.52;;;4.78;;
32214;SDS011;18708;53.124;23.190;2023-04-24T05:45:58;7.97;;;4.97;;
32214;SDS011;18708;53.124;23.190;2023-04-24T05:48:24;23.13;;;5.38;;
32214;SDS011;18708;53.124;23.190;2023-04-24T05:50:50;14.60;;;4.57;;
32214;SDS011;18708;53.124;23.190;2023-04-24T05:53:17;14.38;;;4.80;;
32214;SDS011;18708;53.124;23.190;2023-04-24T05:55:43;6.15;;;4.90;;
32214;SDS011;18708;53.124;23.190;2023-04-24T05:58:09;14.52;;;4.85;;
32214;SDS011;18708;53.124;23.190;2023-04-24T06:00:35;10.68;;;4.57;;
32214;SDS011;18708;53.124;23.190;2023-04-24T06:03:01;11.75;;;4.50;;
32214;SDS011;18708;53.124;23.190;2023-04-24T06:05:28;11.40;;;4.75;;
32214;SDS011;18708;53.124;23.190;2023-04-24T06:07:54;11.57;;;4.43;;
32214;SDS011;18708;53.124;23.190;2023-04-24T06:10:20;13.07;;;4.65;;
32214;SDS011;18708;53.124;23.190;2023-04-24T06:12:46;6.78;;;4.53;;
32214;SDS011;18708;53.124;23.190;2023-04-24T06:15:12;10.18;;;4.53;;
32214;SDS011;18708;53.124;23.190;2023-04-24T06:17:38;12.00;;;4.72;;
32214;SDS011;18708;53.124;23.190;2023-04-24T06:20:03;13.75;;;4.82;;
32214;SDS011;18708;53.124;23.190;2023-04-24T06:22:31;8.80;;;4.93;;
32214;SDS011;18708;53.124;23.190;2023-04-24T06:24:56;6.10;;;4.20;;
32214;SDS011;18708;53.124;23.190;2023-04-24T06:27:22;11.02;;;5.00;;
32214;SDS011;18708;53.124;23.190;2023-04-24T06:29:48;10.50;;;4.70;;
32214;SDS011;18708;53.124;23.190;2023-04-24T06:32:20;12.20;;;4.60;;
32214;SDS011;18708;53.124;23.190;2023-04-24T06:34:49;13.90;;;4.65;;
32214;SDS011;18708;53.124;23.190;2023-04-24T06:37:16;13.73;;;4.97;;
32214;SDS011;18708;53.124;23.190;2023-04-24T06:39:41;14.02;;;4.68;;
32214;SDS011;18708;53.124;23.190;2023-04-24T06:42:07;11.18;;;4.90;;
32214;SDS011;18708;53.124;23.190;2023-04-24T06:44:34;9.52;;;4.32;;
32214;SDS011;18708;53.124;23.190;2023-04-24T06:47:05;12.32;;;4.85;;
32214;SDS011;18708;53.124;23.190;2023-04-24T06:49:37;12.02;;;4.47;;
32214;SDS011;18708;53.124;23.190;2023-04-24T06:52:03;12.18;;;4.90;;
32214;SDS011;18708;53.124;23.190;2023-04-24T06:54:30;11.10;;;4.38;;
32214;SDS011;18708;53.124;23.190;2023-04-24T06:56:56;10.65;;;4.90;;
32214;SDS011;18708;53.124;23.190;2023-04-24T06:59:28;8.75;;;4.65;;
32214;SDS011;18708;53.124;23.190;2023-04-24T07:01:55;12.00;;;5.10;;
32214;SDS011;18708;53.124;23.190;2023-04-24T07:04:20;11.65;;;5.28;;
32214;SDS011;18708;53.124;23.190;2023-04-24T07:06:46;10.82;;;5.05;;
32214;SDS011;18708;53.124;23.190;2023-04-24T07:09:14;12.48;;;4.85;;
32214;SDS011;18708;53.124;23.190;2023-04-24T07:11:41;8.00;;;4.05;;
32214;SDS011;18708;53.124;23.190;2023-04-24T07:14:07;7.90;;;4.47;;
32214;SDS011;18708;53.124;23.190;2023-04-24T07:16:33;8.10;;;4.57;;
32214;SDS011;18708;53.124;23.190;2023-04-24T07:18:59;9.70;;;5.07;;
32214;SDS011;18708;53.124;23.190;2023-04-24T07:21:25;12.63;;;4.82;;
32214;SDS011;18708;53.124;23.190;2023-04-24T07:23:52;10.93;;;4.45;;
32214;SDS011;18708;53.124;23.190;2023-04-24T07:26:17;10.48;;;4.40;;
32214;SDS011;18708;53.124;23.190;2023-04-24T07:28:44;9.90;;;4.40;;
32214;SDS011;18708;53.124;23.190;2023-04-24T07:31:10;8.57;;;4.80;;
32214;SDS011;18708;53.124;23.190;2023-04-24T07:33:36;10.88;;;4.30;;
32214;SDS011;18708;53.124;23.190;2023-04-24T07:36:03;9.90;;;4.50;;
32214;SDS011;18708;53.124;23.190;2023-04-24T07:38:29;10.80;;;4.47;;
32214;SDS011;18708;53.124;23.190;2023-04-24T07:40:56;10.32;;;4.80;;
32214;SDS011;18708;53.124;23.190;2023-04-24T07:43:24;8.27;;;4.35;;
32214;SDS011;18708;53.124;23.190;2023-04-24T07:45:50;7.15;;;4.68;;
32214;SDS011;18708;53.124;23.190;2023-04-24T07:48:16;7.82;;;4.82;;
32214;SDS011;18708;53.124;23.190;2023-04-24T07:50:43;9.35;;;4.70;;
32214;SDS011;18708;53.124;23.190;2023-04-24T07:53:09;9.95;;;4.82;;
32214;SDS011;18708;53.124;23.190;2023-04-24T07:55:35;10.45;;;4.63;;
32214;SDS011;18708;53.124;23.190;2023-04-24T07:58:05;8.82;;;4.40;;
32214;SDS011;18708;53.124;23.190;2023-04-24T08:00:31;6.85;;;4.60;;
32214;SDS011;18708;53.124;23.190;2023-04-24T08:02:57;12.60;;;5.32;;
32214;SDS011;18708;53.124;23.190;2023-04-24T08:05:22;9.02;;;4.22;;
32214;SDS011;18708;53.124;23.190;2023-04-24T08:07:50;12.73;;;5.13;;
32214;SDS011;18708;53.124;23.190;2023-04-24T08:10:16;9.65;;;4.70;;
32214;SDS011;18708;53.124;23.190;2023-04-24T08:12:44;11.02;;;4.25;;
32214;SDS011;18708;53.124;23.190;2023-04-24T08:15:09;12.15;;;4.55;;
32214;SDS011;18708;53.124;23.190;2023-04-24T08:17:35;10.57;;;4.60;;
32214;SDS011;18708;53.124;23.190;2023-04-24T08:20:02;9.95;;;4.88;;
32214;SDS011;18708;53.124;23.190;2023-04-24T08:22:30;8.77;;;3.92;;
32214;SDS011;18708;53.124;23.190;2023-04-24T08:24:56;7.88;;;4.20;;
32214;SDS011;18708;53.124;23.190;2023-04-24T08:27:22;11.43;;;4.45;;
32214;SDS011;18708;53.124;23.190;2023-04-24T08:29:48;8.50;;;4.13;;
32214;SDS011;18708;53.124;23.190;2023-04-24T08:32:14;8.95;;;4.70;;
32214;SDS011;18708;53.124;23.190;2023-04-24T08:34:40;9.43;;;4.70;;
32214;SDS011;18708;53.124;23.190;2023-04-24T08:37:08;7.97;;;4.32;;
32214;SDS011;18708;53.124;23.190;2023-04-24T08:39:34;8.57;;;4.30;;
32214;SDS011;18708;53.124;23.190;2023-04-24T08:42:00;8.90;;;4.88;;
32214;SDS011;18708;53.124;23.190;2023-04-24T08:44:31;9.30;;;4.10;;
32214;SDS011;18708;53.124;23.190;2023-04-24T08:46:57;12.35;;;4.20;;
32214;SDS011;18708;53.124;23.190;2023-04-24T08:49:24;10.23;;;4.72;;
32214;SDS011;18708;53.124;23.190;2023-04-24T08:51:52;8.68;;;4.30;;
32214;SDS011;18708;53.124;23.190;2023-04-24T08:54:18;10.82;;;4.70;;
32214;SDS011;18708;53.124;23.190;2023-04-24T08:56:44;8.95;;;3.58;;
32214;SDS011;18708;53.124;23.190;2023-04-24T08:59:11;9.65;;;4.18;;
32214;SDS011;18708;53.124;23.190;2023-04-24T09:01:37;10.55;;;4.15;;
32214;SDS011;18708;53.124;23.190;2023-04-24T09:04:04;13.50;;;4.25;;
32214;SDS011;18708;53.124;23.190;2023-04-24T09:06:32;8.15;;;4.30;;
32214;SDS011;18708;53.124;23.190;2023-04-24T09:09:00;8.93;;;3.83;;
32214;SDS011;18708;53.124;23.190;2023-04-24T09:11:26;7.03;;;4.53;;
32214;SDS011;18708;53.124;23.190;2023-04-24T09:13:53;7.78;;;4.30;;
32214;SDS011;18708;53.124;23.190;2023-04-24T09:16:20;10.38;;;4.22;;
32214;SDS011;18708;53.124;23.190;2023-04-24T09:18:48;15.35;;;4.35;;
32214;SDS011;18708;53.124;23.190;2023-04-24T09:21:13;10.50;;;4.18;;
32214;SDS011;18708;53.124;23.190;2023-04-24T09:23:40;9.93;;;4.07;;
32214;SDS011;18708;53.124;23.190;2023-04-24T09:26:06;7.68;;;4.00;;
32214;SDS011;18708;53.124;23.190;2023-04-24T09:28:35;6.93;;;4.15;;
32214;SDS011;18708;53.124;23.190;2023-04-24T09:31:09;8.10;;;4.13;;
32214;SDS011;18708;53.124;23.190;2023-04-24T09:33:38;11.77;;;4.80;;
32214;SDS011;18708;53.124;23.190;2023-04-24T09:36:04;10.68;;;3.97;;
32214;SDS011;18708;53.124;23.190;2023-04-24T09:38:34;14.32;;;4.43;;
32214;SDS011;18708;53.124;23.190;2023-04-24T09:41:02;10.80;;;4.40;;
32214;SDS011;18708;53.124;23.190;2023-04-24T09:43:30;5.78;;;3.95;;
32214;SDS011;18708;53.124;23.190;2023-04-24T09:45:57;30.40;;;4.95;;
32214;SDS011;18708;53.124;23.190;2023-04-24T09:48:30;6.18;;;4.10;;
32214;SDS011;18708;53.124;23.190;2023-04-24T09:51:04;6.82;;;3.85;;
32214;SDS011;18708;53.124;23.190;2023-04-24T09:53:36;6.28;;;3.42;;
32214;SDS011;18708;53.124;23.190;2023-04-24T09:56:03;6.97;;;3.67;;
32214;SDS011;18708;53.124;23.190;2023-04-24T09:58:37;12.32;;;4.18;;
32214;SDS011;18708;53.124;23.190;2023-04-24T10:01:03;6.97;;;4.43;;
32214;SDS011;18708;53.124;23.190;2023-04-24T10:03:32;5.45;;;3.55;;
32214;SDS011;18708;53.124;23.190;2023-04-24T10:05:59;5.63;;;3.83;;
32214;SDS011;18708;53.124;23.190;2023-04-24T10:08:25;11.93;;;4.00;;
32214;SDS011;18708;53.124;23.190;2023-04-24T10:10:57;8.65;;;3.78;;
32214;SDS011;18708;53.124;23.190;2023-04-24T10:13:24;4.60;;;3.75;;
32214;SDS011;18708;53.124;23.190;2023-04-24T10:15:51;4.75;;;3.80;;
32214;SDS011;18708;53.124;23.190;2023-04-24T10:18:17;8.95;;;3.97;;
32214;SDS011;18708;53.124;23.190;2023-04-24T10:20:46;10.05;;;4.30;;
32214;SDS011;18708;53.124;23.190;2023-04-24T10:23:11;7.70;;;3.88;;
32214;SDS011;18708;53.124;23.190;2023-04-24T10:25:37;9.95;;;3.85;;
32214;SDS011;18708;53.124;23.190;2023-04-24T10:28:04;9.40;;;4.15;;
32214;SDS011;18708;53.124;23.190;2023-04-24T10:30:31;10.90;;;4.10;;
32214;SDS011;18708;53.124;23.190;2023-04-24T10:33:02;6.38;;;4.35;;
32214;SDS011;18708;53.124;23.190;2023-04-24T10:35:34;6.95;;;4.00;;
32214;SDS011;18708;53.124;23.190;2023-04-24T10:38:04;9.88;;;4.07;;
32214;SDS011;18708;53.124;23.190;2023-04-24T10:40:33;9.07;;;4.20;;
32214;SDS011;18708;53.124;23.190;2023-04-24T10:43:04;6.07;;;3.67;;
32214;SDS011;18708;53.124;23.190;2023-04-24T10:45:33;4.15;;;3.60;;
32214;SDS011;18708;53.124;23.190;2023-04-24T10:48:01;6.90;;;3.70;;
32214;SDS011;18708;53.124;23.190;2023-04-24T10:50:45;14.88;;;3.63;;
32214;SDS011;18708;53.124;23.190;2023-04-24T10:53:15;11.15;;;4.07;;
32214;SDS011;18708;53.124;23.190;2023-04-24T10:55:43;7.68;;;4.05;;
32214;SDS011;18708;53.124;23.190;2023-04-24T10:58:10;7.63;;;3.80;;
32214;SDS011;18708;53.124;23.190;2023-04-24T11:00:38;5.03;;;3.60;;
32214;SDS011;18708;53.124;23.190;2023-04-24T11:03:22;7.50;;;3.85;;
32214;SDS011;18708;53.124;23.190;2023-04-24T11:08:28;5.43;;;3.47;;
32214;SDS011;18708;53.124;23.190;2023-04-24T11:11:03;7.55;;;3.50;;
32214;SDS011;18708;53.124;23.190;2023-04-24T11:21:45;7.53;;;4.40;;
32214;SDS011;18708;53.124;23.190;2023-04-24T11:24:27;6.40;;;4.10;;
32214;SDS011;18708;53.124;23.190;2023-04-24T11:26:54;7.63;;;3.88;;
32214;SDS011;18708;53.124;23.190;2023-04-24T11:29:22;5.93;;;4.30;;
32214;SDS011;18708;53.124;23.190;2023-04-24T11:31:48;8.50;;;4.00;;
32214;SDS011;18708;53.124;23.190;2023-04-24T11:34:16;7.63;;;3.95;;
32214;SDS011;18708;53.124;23.190;2023-04-24T11:36:43;7.43;;;4.18;;
32214;SDS011;18708;53.124;23.190;2023-04-24T11:39:10;6.65;;;3.90;;
32214;SDS011;18708;53.124;23.190;2023-04-24T11:41:36;12.43;;;4.30;;
32214;SDS011;18708;53.124;23.190;2023-04-24T11:44:03;8.85;;;4.43;;
32214;SDS011;18708;53.124;23.190;2023-04-24T11:46:31;10.70;;;3.75;;
32214;SDS011;18708;53.124;23.190;2023-04-24T11:48:57;9.55;;;3.85;;
32214;SDS011;18708;53.124;23.190;2023-04-24T11:51:24;5.50;;;3.97;;
32214;SDS011;18708;53.124;23.190;2023-04-24T11:53:51;11.07;;;4.38;;
32214;SDS011;18708;53.124;23.190;2023-04-24T11:56:21;8.45;;;3.78;;
32214;SDS011;18708;53.124;23.190;2023-04-24T11:58:48;5.95;;;3.95;;
32214;SDS011;18708;53.124;23.190;2023-04-24T12:01:13;8.07;;;4.30;;
32214;SDS011;18708;53.124;23.190;2023-04-24T12:03:40;8.00;;;3.60;;
32214;SDS011;18708;53.124;23.190;2023-04-24T12:06:09;5.00;;;3.90;;
32214;SDS011;18708;53.124;23.190;2023-04-24T12:08:37;9.90;;;4.25;;
32214;SDS011;18708;53.124;23.190;2023-04-24T12:11:04;7.53;;;4.10;;
32214;SDS011;18708;53.124;23.190;2023-04-24T12:13:34;8.68;;;3.63;;
32214;SDS011;18708;53.124;23.190;2023-04-24T12:16:04;10.43;;;4.20;;
32214;SDS011;18708;53.124;23.190;2023-04-24T12:18:30;6.47;;;3.60;;
32214;SDS011;18708;53.124;23.190;2023-04-24T12:21:14;5.80;;;3.67;;
32214;SDS011;18708;53.124;23.190;2023-04-24T12:23:44;4.45;;;3.55;;
32214;SDS011;18708;53.124;23.190;2023-04-24T12:26:19;4.35;;;3.78;;
32214;SDS011;18708;53.124;23.190;2023-04-24T12:28:47;8.27;;;3.70;;
32214;SDS011;18708;53.124;23.190;2023-04-24T12:31:14;6.68;;;3.58;;
32214;SDS011;18708;53.124;23.190;2023-04-24T12:33:45;9.40;;;3.97;;
32214;SDS011;18708;53.124;23.190;2023-04-24T12:36:11;5.20;;;3.72;;
32214;SDS011;18708;53.124;23.190;2023-04-24T12:38:37;8.23;;;3.50;;
32214;SDS011;18708;53.124;23.190;2023-04-24T12:41:07;7.45;;;3.80;;
32214;SDS011;18708;53.124;23.190;2023-04-24T12:43:34;6.05;;;3.70;;
32214;SDS011;18708;53.124;23.190;2023-04-24T12:46:00;5.13;;;3.60;;
32214;SDS011;18708;53.124;23.190;2023-04-24T12:48:26;4.63;;;3.15;;
32214;SDS011;18708;53.124;23.190;2023-04-24T12:50:53;8.20;;;3.50;;
32214;SDS011;18708;53.124;23.190;2023-04-24T12:53:20;12.57;;;4.50;;
32214;SDS011;18708;53.124;23.190;2023-04-24T12:55:46;7.78;;;4.10;;
32214;SDS011;18708;53.124;23.190;2023-04-24T12:58:17;5.55;;;3.40;;
32214;SDS011;18708;53.124;23.190;2023-04-24T13:00:47;6.20;;;3.20;;
32214;SDS011;18708;53.124;23.190;2023-04-24T13:03:13;12.90;;;3.72;;
32214;SDS011;18708;53.124;23.190;2023-04-24T13:05:38;6.28;;;3.30;;
32214;SDS011;18708;53.124;23.190;2023-04-24T13:08:05;5.22;;;3.28;;
32214;SDS011;18708;53.124;23.190;2023-04-24T13:10:30;9.48;;;3.50;;
32214;SDS011;18708;53.124;23.190;2023-04-24T13:12:56;5.38;;;3.55;;
32214;SDS011;18708;53.124;23.190;2023-04-24T13:15:22;5.40;;;3.53;;
32214;SDS011;18708;53.124;23.190;2023-04-24T13:17:48;5.20;;;3.50;;
32214;SDS011;18708;53.124;23.190;2023-04-24T13:20:14;7.63;;;3.15;;
32214;SDS011;18708;53.124;23.190;2023-04-24T13:22:39;6.82;;;3.70;;
32214;SDS011;18708;53.124;23.190;2023-04-24T13:25:05;7.32;;;3.42;;
32214;SDS011;18708;53.124;23.190;2023-04-24T13:27:32;8.88;;;3.35;;
32214;SDS011;18708;53.124;23.190;2023-04-24T13:29:57;5.78;;;3.20;;
32214;SDS011;18708;53.124;23.190;2023-04-24T13:32:23;4.63;;;3.40;;
32214;SDS011;18708;53.124;23.190;2023-04-24T13:34:50;7.18;;;3.60;;
32214;SDS011;18708;53.124;23.190;2023-04-24T13:37:15;5.70;;;3.65;;
32214;SDS011;18708;53.124;23.190;2023-04-24T13:39:41;5.85;;;3.42;;
32214;SDS011;18708;53.124;23.190;2023-04-24T13:42:07;8.48;;;3.53;;
32214;SDS011;18708;53.124;23.190;2023-04-24T13:44:33;6.10;;;4.15;;
32214;SDS011;18708;53.124;23.190;2023-04-24T13:46:59;4.35;;;3.10;;
32214;SDS011;18708;53.124;23.190;2023-04-24T13:49:24;4.18;;;3.00;;
32214;SDS011;18708;53.124;23.190;2023-04-24T13:51:51;8.50;;;3.40;;
32214;SDS011;18708;53.124;23.190;2023-04-24T13:54:17;6.85;;;3.35;;
32214;SDS011;18708;53.124;23.190;2023-04-24T13:56:42;5.07;;;3.65;;
32214;SDS011;18708;53.124;23.190;2023-04-24T13:59:08;6.30;;;3.80;;
32214;SDS011;18708;53.124;23.190;2023-04-24T14:01:34;7.53;;;3.60;;
32214;SDS011;18708;53.124;23.190;2023-04-24T14:04:00;5.10;;;3.08;;
32214;SDS011;18708;53.124;23.190;2023-04-24T14:06:26;7.88;;;3.53;;
32214;SDS011;18708;53.124;23.190;2023-04-24T14:08:52;6.70;;;3.63;;
32214;SDS011;18708;53.124;23.190;2023-04-24T14:11:17;5.07;;;3.50;;
32214;SDS011;18708;53.124;23.190;2023-04-24T14:13:44;8.75;;;3.92;;
32214;SDS011;18708;53.124;23.190;2023-04-24T14:16:10;5.65;;;3.60;;
32214;SDS011;18708;53.124;23.190;2023-04-24T14:18:36;7.30;;;3.53;;
32214;SDS011;18708;53.124;23.190;2023-04-24T14:21:05;10.73;;;3.63;;
32214;SDS011;18708;53.124;23.190;2023-04-24T14:23:31;5.90;;;4.07;;
32214;SDS011;18708;53.124;23.190;2023-04-24T14:25:57;9.70;;;3.60;;
32214;SDS011;18708;53.124;23.190;2023-04-24T14:28:23;8.48;;;3.67;;
32214;SDS011;18708;53.124;23.190;2023-04-24T14:30:50;5.00;;;3.60;;
32214;SDS011;18708;53.124;23.190;2023-04-24T14:33:16;6.82;;;3.58;;
32214;SDS011;18708;53.124;23.190;2023-04-24T14:35:42;5.70;;;3.80;;
32214;SDS011;18708;53.124;23.190;2023-04-24T14:38:07;6.30;;;3.30;;
32214;SDS011;18708;53.124;23.190;2023-04-24T14:40:34;10.38;;;3.58;;